sensor_id;sensor_type;location;lat;lon;timestamp;temperature;humidity
27258;DHT22;62045;49.986;8.672;2023-03-13T00:02:42;17.40;51.40
27258;DHT22;62045;49.986;8.672;2023-03-13T00:07:43;17.40;51.40
27258;DHT22;62045;49.986;8.672;2023-03-13T00:12:43;17.30;51.40
27258;DHT22;62045;49.986;8.672;2023-03-13T00:17:45;17.30;51.50
27258;DHT22;62045;49.986;8.672;2023-03-13T00:22:46;17.20;51.50
27258;DHT22;62045;49.986;8.672;2023-03-13T00:27:47;17.10;51.50
27258;DHT22;62045;49.986;8.672;2023-03-13T00:32:49;17.00;51.60
27258;DHT22;62045;49.986;8.672;2023-03-13T00:37:49;17.00;51.70
27258;DHT22;62045;49.986;8.672;2023-03-13T00:42:50;17.10;51.60
27258;DHT22;62045;49.986;8.672;2023-03-13T00:47:52;17.20;51.40
27258;DHT22;62045;49.986;8.672;2023-03-13T00:52:53;17.30;51.30
27258;DHT22;62045;49.986;8.672;2023-03-13T00:57:54;17.40;51.20
27258;DHT22;62045;49.986;8.672;2023-03-13T01:02:56;17.40;51.20
27258;DHT22;62045;49.986;8.672;2023-03-13T01:07:56;17.40;51.10
27258;DHT22;62045;49.986;8.672;2023-03-13T01:12:57;17.40;51.20
27258;DHT22;62045;49.986;8.672;2023-03-13T01:17:59;17.30;51.20
27258;DHT22;62045;49.986;8.672;2023-03-13T01:23:00;17.30;51.20
27258;DHT22;62045;49.986;8.672;2023-03-13T01:28:01;17.20;51.20
27258;DHT22;62045;49.986;8.672;2023-03-13T01:33:04;17.20;51.40
27258;DHT22;62045;49.986;8.672;2023-03-13T01:38:04;17.20;51.40
27258;DHT22;62045;49.986;8.672;2023-03-13T01:43:16;17.20;51.30
27258;DHT22;62045;49.986;8.672;2023-03-13T01:48:19;17.30;51.20
27258;DHT22;62045;49.986;8.672;2023-03-13T01:53:23;17.40;51.10
27258;DHT22;62045;49.986;8.672;2023-03-13T01:58:25;17.40;51.00
27258;DHT22;62045;49.986;8.672;2023-03-13T02:03:28;17.40;50.90
27258;DHT22;62045;49.986;8.672;2023-03-13T02:08:36;17.40;51.00
27258;DHT22;62045;49.986;8.672;2023-03-13T02:13:38;17.40;51.00
27258;DHT22;62045;49.986;8.672;2023-03-13T02:18:40;17.30;51.00
27258;DHT22;62045;49.986;8.672;2023-03-13T02:23:47;17.20;51.10
27258;DHT22;62045;49.986;8.672;2023-03-13T02:28:52;17.20;51.20
27258;DHT22;62045;49.986;8.672;2023-03-13T02:33:54;17.20;51.20
27258;DHT22;62045;49.986;8.672;2023-03-13T02:38:57;17.20;51.20
27258;DHT22;62045;49.986;8.672;2023-03-13T02:44:01;17.20;51.20
27258;DHT22;62045;49.986;8.672;2023-03-13T02:49:18;17.30;51.00
27258;DHT22;62045;49.986;8.672;2023-03-13T02:54:22;17.40;50.90
27258;DHT22;62045;49.986;8.672;2023-03-13T02:59:25;17.40;50.80
27258;DHT22;62045;49.986;8.672;2023-03-13T03:04:26;17.40;50.80
27258;DHT22;62045;49.986;8.672;2023-03-13T03:09:29;17.40;50.80
27258;DHT22;62045;49.986;8.672;2023-03-13T03:14:37;17.30;50.80
27258;DHT22;62045;49.986;8.672;2023-03-13T03:19:39;17.30;50.90
27258;DHT22;62045;49.986;8.672;2023-03-13T03:24:40;17.20;51.00
27258;DHT22;62045;49.986;8.672;2023-03-13T03:29:42;17.20;51.10
27258;DHT22;62045;49.986;8.672;2023-03-13T03:34:43;17.10;51.10
27258;DHT22;62045;49.986;8.672;2023-03-13T03:39:44;17.20;51.10
27258;DHT22;62045;49.986;8.672;2023-03-13T03:44:46;17.20;51.00
27258;DHT22;62045;49.986;8.672;2023-03-13T03:49:48;17.30;50.80
27258;DHT22;62045;49.986;8.672;2023-03-13T03:54:50;17.40;50.80
27258;DHT22;62045;49.986;8.672;2023-03-13T03:59:53;17.40;50.70
27258;DHT22;62045;49.986;8.672;2023-03-13T04:04:56;17.40;50.70
27258;DHT22;62045;49.986;8.672;2023-03-13T04:10:04;17.40;50.70
27258;DHT22;62045;49.986;8.672;2023-03-13T04:15:12;17.30;50.70
27258;DHT22;62045;49.986;8.672;2023-03-13T04:20:14;17.30;50.80
27258;DHT22;62045;49.986;8.672;2023-03-13T04:25:15;17.30;50.90
27258;DHT22;62045;49.986;8.672;2023-03-13T04:30:18;17.20;50.90
27258;DHT22;62045;49.986;8.672;2023-03-13T04:35:34;17.20;51.00
27258;DHT22;62045;49.986;8.672;2023-03-13T04:40:57;17.20;51.00
27258;DHT22;62045;49.986;8.672;2023-03-13T04:46:20;17.30;51.00
27258;DHT22;62045;49.986;8.672;2023-03-13T04:51:39;17.40;50.90
27258;DHT22;62045;49.986;8.672;2023-03-13T04:57:06;17.40;50.70
27258;DHT22;62045;49.986;8.672;2023-03-13T05:02:14;17.50;50.60
27258;DHT22;62045;49.986;8.672;2023-03-13T05:07:40;17.50;50.60
27258;DHT22;62045;49.986;8.672;2023-03-13T05:13:03;17.40;50.60
27258;DHT22;62045;49.986;8.672;2023-03-13T05:18:28;17.40;50.70
27258;DHT22;62045;49.986;8.672;2023-03-13T05:23:42;17.30;50.70
27258;DHT22;62045;49.986;8.672;2023-03-13T05:29:12;17.20;50.80
27258;DHT22;62045;49.986;8.672;2023-03-13T05:34:43;17.20;50.90
27258;DHT22;62045;49.986;8.672;2023-03-13T05:40:03;17.30;50.90
27258;DHT22;62045;49.986;8.672;2023-03-13T05:45:39;17.40;50.70
27258;DHT22;62045;49.986;8.672;2023-03-13T05:50:48;17.50;50.50
27258;DHT22;62045;49.986;8.672;2023-03-13T05:56:07;17.60;50.40
27258;DHT22;62045;49.986;8.672;2023-03-13T06:01:13;17.60;50.40
27258;DHT22;62045;49.986;8.672;2023-03-13T06:06:30;17.50;50.40
27258;DHT22;62045;49.986;8.672;2023-03-13T06:11:32;17.50;50.50
27258;DHT22;62045;49.986;8.672;2023-03-13T06:16:34;17.40;50.50
27258;DHT22;62045;49.986;8.672;2023-03-13T06:21:54;17.40;50.60
27258;DHT22;62045;49.986;8.672;2023-03-13T06:26:55;17.30;50.70
27258;DHT22;62045;49.986;8.672;2023-03-13T06:31:56;17.20;51.40
27258;DHT22;62045;49.986;8.672;2023-03-13T06:36:58;17.20;50.90
27258;DHT22;62045;49.986;8.672;2023-03-13T06:41:59;17.30;50.90
27258;DHT22;62045;49.986;8.672;2023-03-13T06:46:59;17.40;51.00
27258;DHT22;62045;49.986;8.672;2023-03-13T06:52:01;17.50;50.50
27258;DHT22;62045;49.986;8.672;2023-03-13T06:57:02;17.60;50.40
27258;DHT22;62045;49.986;8.672;2023-03-13T07:02:03;17.60;50.30
27258;DHT22;62045;49.986;8.672;2023-03-13T07:07:05;17.60;50.30
27258;DHT22;62045;49.986;8.672;2023-03-13T07:12:06;17.60;50.40
27258;DHT22;62045;49.986;8.672;2023-03-13T07:17:07;17.50;50.40
27258;DHT22;62045;49.986;8.672;2023-03-13T07:22:09;17.50;50.50
27258;DHT22;62045;49.986;8.672;2023-03-13T07:27:10;17.50;50.60
27258;DHT22;62045;49.986;8.672;2023-03-13T07:32:11;17.40;50.70
27258;DHT22;62045;49.986;8.672;2023-03-13T07:37:14;17.40;50.80
27258;DHT22;62045;49.986;8.672;2023-03-13T07:42:15;17.40;50.90
27258;DHT22;62045;49.986;8.672;2023-03-13T07:47:15;17.40;50.90
27258;DHT22;62045;49.986;8.672;2023-03-13T07:52:17;17.50;50.70
27258;DHT22;62045;49.986;8.672;2023-03-13T07:57:18;17.50;50.60
27258;DHT22;62045;49.986;8.672;2023-03-13T08:02:19;17.60;50.50
27258;DHT22;62045;49.986;8.672;2023-03-13T08:07:21;17.60;50.60
27258;DHT22;62045;49.986;8.672;2023-03-13T08:12:22;17.50;50.60
27258;DHT22;62045;49.986;8.672;2023-03-13T08:17:23;17.50;51.00
27258;DHT22;62045;49.986;8.672;2023-03-13T08:22:25;17.50;51.20
27258;DHT22;62045;49.986;8.672;2023-03-13T08:27:28;17.40;51.30
27258;DHT22;62045;49.986;8.672;2023-03-13T08:32:31;17.40;51.40
27258;DHT22;62045;49.986;8.672;2023-03-13T08:37:33;17.30;51.50
27258;DHT22;62045;49.986;8.672;2023-03-13T08:42:34;17.30;51.70
27258;DHT22;62045;49.986;8.672;2023-03-13T08:47:35;17.30;51.70
27258;DHT22;62045;49.986;8.672;2023-03-13T08:52:37;17.40;51.60
27258;DHT22;62045;49.986;8.672;2023-03-13T08:57:38;17.50;51.40
27258;DHT22;62045;49.986;8.672;2023-03-13T09:02:39;17.60;51.20
27258;DHT22;62045;49.986;8.672;2023-03-13T09:07:41;17.70;51.10
27258;DHT22;62045;49.986;8.672;2023-03-13T09:12:41;17.70;51.00
27258;DHT22;62045;49.986;8.672;2023-03-13T09:17:42;17.60;51.00
27258;DHT22;62045;49.986;8.672;2023-03-13T09:22:44;17.60;51.10
27258;DHT22;62045;49.986;8.672;2023-03-13T09:27:45;17.50;51.30
27258;DHT22;62045;49.986;8.672;2023-03-13T09:32:46;17.50;52.70
27258;DHT22;62045;49.986;8.672;2023-03-13T09:37:48;17.60;56.20
27258;DHT22;62045;49.986;8.672;2023-03-13T09:42:51;17.50;54.90
27258;DHT22;62045;49.986;8.672;2023-03-13T09:47:55;17.50;54.40
27258;DHT22;62045;49.986;8.672;2023-03-13T09:53:04;17.40;54.20
27258;DHT22;62045;49.986;8.672;2023-03-13T09:58:10;17.40;54.20
27258;DHT22;62045;49.986;8.672;2023-03-13T10:03:17;17.40;54.00
27258;DHT22;62045;49.986;8.672;2023-03-13T10:08:22;17.40;53.80
27258;DHT22;62045;49.986;8.672;2023-03-13T10:13:36;17.50;53.40
27258;DHT22;62045;49.986;8.672;2023-03-13T10:18:42;17.60;53.10
27258;DHT22;62045;49.986;8.672;2023-03-13T10:23:49;17.70;52.90
27258;DHT22;62045;49.986;8.672;2023-03-13T10:28:56;17.70;52.80
27258;DHT22;62045;49.986;8.672;2023-03-13T10:34:06;17.70;52.70
27258;DHT22;62045;49.986;8.672;2023-03-13T10:39:14;17.70;52.60
27258;DHT22;62045;49.986;8.672;2023-03-13T10:44:16;17.60;52.60
27258;DHT22;62045;49.986;8.672;2023-03-13T10:49:19;17.60;52.60
27258;DHT22;62045;49.986;8.672;2023-03-13T10:54:24;17.50;52.60
27258;DHT22;62045;49.986;8.672;2023-03-13T10:59:25;17.50;52.60
27258;DHT22;62045;49.986;8.672;2023-03-13T11:04:31;17.50;52.70
27258;DHT22;62045;49.986;8.672;2023-03-13T11:09:33;17.40;52.70
27258;DHT22;62045;49.986;8.672;2023-03-13T11:14:34;17.40;52.60
27258;DHT22;62045;49.986;8.672;2023-03-13T11:19:50;17.50;52.50
27258;DHT22;62045;49.986;8.672;2023-03-13T11:25:01;17.60;52.40
27258;DHT22;62045;49.986;8.672;2023-03-13T11:30:13;17.70;52.40
27258;DHT22;62045;49.986;8.672;2023-03-13T11:35:20;17.70;52.20
27258;DHT22;62045;49.986;8.672;2023-03-13T11:40:25;17.70;52.20
27258;DHT22;62045;49.986;8.672;2023-03-13T11:45:48;17.70;52.10
27258;DHT22;62045;49.986;8.672;2023-03-13T11:50:54;17.70;52.10
27258;DHT22;62045;49.986;8.672;2023-03-13T11:56:03;17.60;52.10
27258;DHT22;62045;49.986;8.672;2023-03-13T12:01:08;17.60;52.20
27258;DHT22;62045;49.986;8.672;2023-03-13T12:06:19;17.50;52.20
27258;DHT22;62045;49.986;8.672;2023-03-13T12:11:27;17.50;52.20
27258;DHT22;62045;49.986;8.672;2023-03-13T12:16:38;17.40;52.30
27258;DHT22;62045;49.986;8.672;2023-03-13T12:21:46;17.40;52.30
27258;DHT22;62045;49.986;8.672;2023-03-13T12:26:52;17.50;52.30
27258;DHT22;62045;49.986;8.672;2023-03-13T12:31:58;17.50;52.10
27258;DHT22;62045;49.986;8.672;2023-03-13T12:37:02;17.60;51.90
27258;DHT22;62045;49.986;8.672;2023-03-13T12:42:17;17.70;51.80
27258;DHT22;62045;49.986;8.672;2023-03-13T12:47:26;17.70;51.80
27258;DHT22;62045;49.986;8.672;2023-03-13T12:58:08;17.70;51.80
27258;DHT22;62045;49.986;8.672;2023-03-13T13:03:23;17.70;51.80
27258;DHT22;62045;49.986;8.672;2023-03-13T13:08:31;17.60;51.80
27258;DHT22;62045;49.986;8.672;2023-03-13T13:13:38;17.60;51.80
27258;DHT22;62045;49.986;8.672;2023-03-13T13:18:39;17.60;51.90
27258;DHT22;62045;49.986;8.672;2023-03-13T13:23:41;17.60;52.00
27258;DHT22;62045;49.986;8.672;2023-03-13T13:28:45;17.50;51.90
27258;DHT22;62045;49.986;8.672;2023-03-13T13:33:46;17.50;52.00
27258;DHT22;62045;49.986;8.672;2023-03-13T13:38:47;17.50;52.00
27258;DHT22;62045;49.986;8.672;2023-03-13T13:44:22;17.60;51.80
27258;DHT22;62045;49.986;8.672;2023-03-13T13:49:32;17.70;51.80
27258;DHT22;62045;49.986;8.672;2023-03-13T13:54:52;17.70;51.70
27258;DHT22;62045;49.986;8.672;2023-03-13T13:59:59;17.80;51.80
27258;DHT22;62045;49.986;8.672;2023-03-13T14:05:06;17.70;52.00
27258;DHT22;62045;49.986;8.672;2023-03-13T14:10:15;17.70;52.20
27258;DHT22;62045;49.986;8.672;2023-03-13T14:15:21;17.70;52.50
27258;DHT22;62045;49.986;8.672;2023-03-13T14:20:31;17.70;52.70
27258;DHT22;62045;49.986;8.672;2023-03-13T14:25:44;17.60;52.90
27258;DHT22;62045;49.986;8.672;2023-03-13T14:30:50;17.60;53.10
27258;DHT22;62045;49.986;8.672;2023-03-13T14:35:51;17.60;53.20
27258;DHT22;62045;49.986;8.672;2023-03-13T14:40:53;17.60;53.20
27258;DHT22;62045;49.986;8.672;2023-03-13T14:45:56;17.50;53.20
27258;DHT22;62045;49.986;8.672;2023-03-13T14:51:01;17.50;53.80
27258;DHT22;62045;49.986;8.672;2023-03-13T14:56:11;17.50;53.20
27258;DHT22;62045;49.986;8.672;2023-03-13T15:01:22;17.50;53.30
27258;DHT22;62045;49.986;8.672;2023-03-13T15:06:23;17.50;53.20
27258;DHT22;62045;49.986;8.672;2023-03-13T15:11:26;17.70;52.90
27258;DHT22;62045;49.986;8.672;2023-03-13T15:16:29;17.90;52.60
27258;DHT22;62045;49.986;8.672;2023-03-13T15:21:32;18.00;52.30
27258;DHT22;62045;49.986;8.672;2023-03-13T15:26:33;18.10;52.20
27258;DHT22;62045;49.986;8.672;2023-03-13T15:31:35;18.10;52.00
27258;DHT22;62045;49.986;8.672;2023-03-13T15:36:37;18.10;52.00
27258;DHT22;62045;49.986;8.672;2023-03-13T15:41:37;18.10;52.10
27258;DHT22;62045;49.986;8.672;2023-03-13T15:46:39;18.00;52.20
27258;DHT22;62045;49.986;8.672;2023-03-13T15:51:40;18.00;52.30
27258;DHT22;62045;49.986;8.672;2023-03-13T15:56:41;18.00;52.30
27258;DHT22;62045;49.986;8.672;2023-03-13T16:01:43;18.00;52.40
27258;DHT22;62045;49.986;8.672;2023-03-13T16:06:44;17.90;52.40
27258;DHT22;62045;49.986;8.672;2023-03-13T16:11:45;17.90;52.40
27258;DHT22;62045;49.986;8.672;2023-03-13T16:16:47;17.90;52.40
27258;DHT22;62045;49.986;8.672;2023-03-13T16:21:47;17.90;52.40
27258;DHT22;62045;49.986;8.672;2023-03-13T16:26:48;17.90;52.40
27258;DHT22;62045;49.986;8.672;2023-03-13T16:31:50;17.90;52.50
27258;DHT22;62045;49.986;8.672;2023-03-13T16:36:51;17.80;52.50
27258;DHT22;62045;49.986;8.672;2023-03-13T16:41:51;17.80;52.50
27258;DHT22;62045;49.986;8.672;2023-03-13T16:46:54;17.80;52.50
27258;DHT22;62045;49.986;8.672;2023-03-13T16:51:54;17.90;52.40
27258;DHT22;62045;49.986;8.672;2023-03-13T16:56:55;17.90;52.30
27258;DHT22;62045;49.986;8.672;2023-03-13T17:01:57;17.90;52.30
27258;DHT22;62045;49.986;8.672;2023-03-13T17:06:58;17.90;52.30
27258;DHT22;62045;49.986;8.672;2023-03-13T17:11:58;17.90;52.30
27258;DHT22;62045;49.986;8.672;2023-03-13T17:17:00;17.80;52.30
27258;DHT22;62045;49.986;8.672;2023-03-13T17:22:02;17.80;52.30
27258;DHT22;62045;49.986;8.672;2023-03-13T17:27:02;17.80;52.40
27258;DHT22;62045;49.986;8.672;2023-03-13T17:32:05;17.70;53.30
27258;DHT22;62045;49.986;8.672;2023-03-13T17:37:12;17.70;53.40
27258;DHT22;62045;49.986;8.672;2023-03-13T17:42:14;17.70;53.70
27258;DHT22;62045;49.986;8.672;2023-03-13T17:47:18;17.80;55.30
27258;DHT22;62045;49.986;8.672;2023-03-13T17:52:21;18.10;56.40
27258;DHT22;62045;49.986;8.672;2023-03-13T17:57:21;18.30;55.20
27258;DHT22;62045;49.986;8.672;2023-03-13T18:02:24;18.40;54.60
27258;DHT22;62045;49.986;8.672;2023-03-13T18:07:26;18.50;54.30
27258;DHT22;62045;49.986;8.672;2023-03-13T18:12:28;18.40;54.10
27258;DHT22;62045;49.986;8.672;2023-03-13T18:17:30;18.40;54.00
27258;DHT22;62045;49.986;8.672;2023-03-13T18:22:31;18.30;54.00
27258;DHT22;62045;49.986;8.672;2023-03-13T18:27:31;18.30;54.00
27258;DHT22;62045;49.986;8.672;2023-03-13T18:32:33;18.20;54.00
27258;DHT22;62045;49.986;8.672;2023-03-13T18:37:34;18.20;54.00
27258;DHT22;62045;49.986;8.672;2023-03-13T18:42:35;18.20;53.90
27258;DHT22;62045;49.986;8.672;2023-03-13T18:47:37;18.10;54.60
27258;DHT22;62045;49.986;8.672;2023-03-13T18:52:38;18.10;53.90
27258;DHT22;62045;49.986;8.672;2023-03-13T18:57:38;18.10;54.00
27258;DHT22;62045;49.986;8.672;2023-03-13T19:02:40;18.00;54.00
27258;DHT22;62045;49.986;8.672;2023-03-13T19:07:41;18.00;54.00
27258;DHT22;62045;49.986;8.672;2023-03-13T19:12:42;18.00;54.00
27258;DHT22;62045;49.986;8.672;2023-03-13T19:17:44;18.00;54.10
27258;DHT22;62045;49.986;8.672;2023-03-13T19:22:45;17.90;54.00
27258;DHT22;62045;49.986;8.672;2023-03-13T19:27:46;17.90;54.10
27258;DHT22;62045;49.986;8.672;2023-03-13T19:32:49;17.90;54.20
27258;DHT22;62045;49.986;8.672;2023-03-13T19:37:50;17.80;54.20
27258;DHT22;62045;49.986;8.672;2023-03-13T19:42:50;17.80;54.30
27258;DHT22;62045;49.986;8.672;2023-03-13T19:47:52;17.80;54.30
27258;DHT22;62045;49.986;8.672;2023-03-13T19:52:53;17.80;54.30
27258;DHT22;62045;49.986;8.672;2023-03-13T19:57:54;17.80;54.40
27258;DHT22;62045;49.986;8.672;2023-03-13T20:02:56;17.80;54.40
27258;DHT22;62045;49.986;8.672;2023-03-13T20:07:57;17.70;54.40
27258;DHT22;62045;49.986;8.672;2023-03-13T20:12:57;17.70;54.40
27258;DHT22;62045;49.986;8.672;2023-03-13T20:17:59;17.80;54.40
27258;DHT22;62045;49.986;8.672;2023-03-13T20:23:00;17.70;55.00
27258;DHT22;62045;49.986;8.672;2023-03-13T20:28:01;17.70;54.40
27258;DHT22;62045;49.986;8.672;2023-03-13T20:33:03;17.70;54.40
27258;DHT22;62045;49.986;8.672;2023-03-13T20:38:05;17.70;54.70
27258;DHT22;62045;49.986;8.672;2023-03-13T20:43:05;17.70;54.80
27258;DHT22;62045;49.986;8.672;2023-03-13T20:48:07;17.70;55.00
27258;DHT22;62045;49.986;8.672;2023-03-13T20:53:09;17.70;54.90
27258;DHT22;62045;49.986;8.672;2023-03-13T20:58:09;17.70;54.80
27258;DHT22;62045;49.986;8.672;2023-03-13T21:03:12;17.70;54.70
27258;DHT22;62045;49.986;8.672;2023-03-13T21:08:12;17.80;54.80
27258;DHT22;62045;49.986;8.672;2023-03-13T21:13:13;17.80;54.70
27258;DHT22;62045;49.986;8.672;2023-03-13T21:18:15;17.80;54.70
27258;DHT22;62045;49.986;8.672;2023-03-13T21:23:16;17.80;54.60
27258;DHT22;62045;49.986;8.672;2023-03-13T21:28:17;17.80;54.60
27258;DHT22;62045;49.986;8.672;2023-03-13T21:33:19;17.80;54.60
27258;DHT22;62045;49.986;8.672;2023-03-13T21:38:20;17.80;54.60
27258;DHT22;62045;49.986;8.672;2023-03-13T21:43:21;17.70;54.60
27258;DHT22;62045;49.986;8.672;2023-03-13T21:48:23;17.70;54.60
27258;DHT22;62045;49.986;8.672;2023-03-13T21:53:23;17.70;54.60
27258;DHT22;62045;49.986;8.672;2023-03-13T21:58:24;17.60;54.60
27258;DHT22;62045;49.986;8.672;2023-03-13T22:03:26;17.60;54.50
27258;DHT22;62045;49.986;8.672;2023-03-13T22:08:27;17.60;54.60
27258;DHT22;62045;49.986;8.672;2023-03-13T22:13:28;17.60;54.60
27258;DHT22;62045;49.986;8.672;2023-03-13T22:18:30;17.60;54.70
27258;DHT22;62045;49.986;8.672;2023-03-13T22:23:30;17.60;54.60
27258;DHT22;62045;49.986;8.672;2023-03-13T22:28:31;17.50;54.70
27258;DHT22;62045;49.986;8.672;2023-03-13T22:33:34;17.50;54.70
27258;DHT22;62045;49.986;8.672;2023-03-13T22:38:35;17.50;54.70
27258;DHT22;62045;49.986;8.672;2023-03-13T22:43:36;17.50;54.70
27258;DHT22;62045;49.986;8.672;2023-03-13T22:48:38;17.50;54.70
27258;DHT22;62045;49.986;8.672;2023-03-13T22:53:40;17.50;54.70
27258;DHT22;62045;49.986;8.672;2023-03-13T22:58:41;17.40;54.70
27258;DHT22;62045;49.986;8.672;2023-03-13T23:03:43;17.40;54.70
27258;DHT22;62045;49.986;8.672;2023-03-13T23:08:44;17.40;54.70
27258;DHT22;62045;49.986;8.672;2023-03-13T23:13:45;17.40;54.70
27258;DHT22;62045;49.986;8.672;2023-03-13T23:18:47;17.40;54.70
27258;DHT22;62045;49.986;8.672;2023-03-13T23:23:48;17.40;54.70
27258;DHT22;62045;49.986;8.672;2023-03-13T23:28:49;17.30;54.70
27258;DHT22;62045;49.986;8.672;2023-03-13T23:33:51;17.40;54.70
27258;DHT22;62045;49.986;8.672;2023-03-13T23:38:53;17.40;54.70
27258;DHT22;62045;49.986;8.672;2023-03-13T23:43:53;17.40;54.70
27258;DHT22;62045;49.986;8.672;2023-03-13T23:48:57;17.40;54.70
27258;DHT22;62045;49.986;8.672;2023-03-13T23:53:59;17.40;54.60
27258;DHT22;62045;49.986;8.672;2023-03-13T23:59:00;17.50;54.60
